createdAt,value
2018-09-23T00:00:02.970Z,1.00
2018-09-23T00:02:31.877Z,1.62
2018-09-23T00:05:00.855Z,0.85
2018-09-23T00:07:29.802Z,2.25
2018-09-23T00:09:58.874Z,1.00
2018-09-23T00:12:27.771Z,1.65
2018-09-23T00:14:56.666Z,1.02
2018-09-23T00:17:25.555Z,1.30
2018-09-23T00:19:54.452Z,3.33
2018-09-23T00:22:23.382Z,1.02
2018-09-23T00:24:52.211Z,1.15
2018-09-23T00:27:21.102Z,2.15
2018-09-23T00:29:50.598Z,1.12
2018-09-23T00:32:21.851Z,0.90
2018-09-23T00:34:50.746Z,0.98
2018-09-23T00:37:19.646Z,1.15
2018-09-23T00:39:48.655Z,0.90
2018-09-23T00:42:17.531Z,0.90
2018-09-23T00:44:46.414Z,0.90
2018-09-23T00:47:15.298Z,1.10
2018-09-23T00:49:44.187Z,0.95
2018-09-23T00:52:13.054Z,0.90
2018-09-23T00:54:41.943Z,0.82
2018-09-23T00:57:10.809Z,1.05
2018-09-23T00:59:39.707Z,0.85
2018-09-23T01:02:08.619Z,1.00
2018-09-23T01:04:37.518Z,0.80
2018-09-23T01:07:06.438Z,1.60
2018-09-23T01:09:35.347Z,1.07
2018-09-23T01:12:04.266Z,0.80
2018-09-23T01:14:33.159Z,1.07
2018-09-23T01:17:02.090Z,1.10
2018-09-23T01:19:31.004Z,1.00
2018-09-23T01:21:59.926Z,0.98
2018-09-23T01:24:28.960Z,1.05
2018-09-23T01:26:57.850Z,0.90
2018-09-23T01:29:26.748Z,1.25
2018-09-23T01:31:55.647Z,0.95
2018-09-23T01:34:24.536Z,1.00
2018-09-23T01:36:53.550Z,1.05
2018-09-23T01:39:22.451Z,1.22
2018-09-23T01:41:51.318Z,0.88
2018-09-23T01:44:20.198Z,1.20
2018-09-23T01:46:49.063Z,1.17
2018-09-23T01:49:17.941Z,1.25
2018-09-23T01:51:46.813Z,1.47
2018-09-23T01:54:15.715Z,1.37
2018-09-23T01:56:44.570Z,1.35
2018-09-23T01:59:13.454Z,1.05
2018-09-23T02:01:42.339Z,1.00
2018-09-23T02:04:11.199Z,1.20
2018-09-23T02:06:40.096Z,1.77
2018-09-23T02:09:09.616Z,1.22
2018-09-23T02:11:38.499Z,1.50
2018-09-23T02:14:07.387Z,1.00
2018-09-23T02:16:36.302Z,1.10
2018-09-23T02:19:05.738Z,0.93
2018-09-23T02:21:34.635Z,1.50
2018-09-23T02:24:03.726Z,1.27
2018-09-23T02:26:32.666Z,1.57
2018-09-23T02:29:01.580Z,1.00
2018-09-23T02:31:30.527Z,1.40
2018-09-23T02:33:59.411Z,1.20
2018-09-23T02:36:28.344Z,1.17
2018-09-23T02:38:57.215Z,1.42
2018-09-23T02:41:26.114Z,1.22
2018-09-23T02:43:54.985Z,0.95
2018-09-23T02:46:23.863Z,1.35
2018-09-23T02:48:52.739Z,1.25
2018-09-23T02:51:21.627Z,1.27
2018-09-23T02:53:50.494Z,1.30
2018-09-23T02:56:19.390Z,1.40
2018-09-23T02:58:48.262Z,1.35
2018-09-23T03:01:17.174Z,1.10
2018-09-23T03:03:46.057Z,1.30
2018-09-23T03:06:14.972Z,1.30
2018-09-23T03:08:43.835Z,1.42
2018-09-23T03:11:12.788Z,1.57
2018-09-23T03:13:41.645Z,1.50
2018-09-23T03:16:10.687Z,1.15
2018-09-23T03:18:39.555Z,1.32
2018-09-23T03:21:08.439Z,1.37
2018-09-23T03:23:37.332Z,1.47
2018-09-23T03:26:06.199Z,1.47
2018-09-23T03:28:35.138Z,1.37
2018-09-23T03:31:04.068Z,1.95
2018-09-23T03:33:32.958Z,1.98
2018-09-23T03:36:01.887Z,1.90
2018-09-23T03:38:30.869Z,1.10
2018-09-23T03:40:59.770Z,1.37
2018-09-23T03:43:28.658Z,1.40
2018-09-23T03:45:57.570Z,1.30
2018-09-23T03:48:26.456Z,1.30
2018-09-23T03:50:55.492Z,1.75
2018-09-23T03:53:24.342Z,1.55
2018-09-23T03:55:53.223Z,2.08
2018-09-23T03:58:22.084Z,1.35
2018-09-23T04:00:50.978Z,2.75
2018-09-23T04:03:20.011Z,1.85
2018-09-23T04:05:48.881Z,1.40
2018-09-23T04:08:17.825Z,1.80
2018-09-23T04:10:46.720Z,1.50
2018-09-23T04:13:15.574Z,1.32
2018-09-23T04:15:44.450Z,1.50
2018-09-23T04:18:13.332Z,1.45
2018-09-23T04:20:42.206Z,1.45
2018-09-23T04:23:11.074Z,1.80
2018-09-23T04:25:39.950Z,1.35
2018-09-23T04:28:08.826Z,1.40
2018-09-23T04:30:37.706Z,1.50
2018-09-23T04:33:06.585Z,1.65
2018-09-23T04:35:35.475Z,1.65
2018-09-23T04:38:04.411Z,1.85
2018-09-23T04:40:33.351Z,1.40
2018-09-23T04:43:02.343Z,1.45
2018-09-23T04:45:31.383Z,1.80
2018-09-23T04:48:00.366Z,2.58
2018-09-23T04:50:29.333Z,1.87
2018-09-23T04:52:58.403Z,1.87
2018-09-23T04:55:27.326Z,2.35
2018-09-23T04:57:56.147Z,2.00
2018-09-23T05:00:25.011Z,2.60
2018-09-23T05:02:53.899Z,1.67
2018-09-23T05:05:22.894Z,2.00
2018-09-23T05:07:51.762Z,1.70
2018-09-23T05:10:20.674Z,1.70
2018-09-23T05:12:49.538Z,1.80
2018-09-23T05:15:18.430Z,2.30
2018-09-23T05:17:47.303Z,1.80
2018-09-23T05:20:16.190Z,2.12
2018-09-23T05:22:45.063Z,1.85
2018-09-23T05:25:13.954Z,1.85
2018-09-23T05:27:42.831Z,1.90
2018-09-23T05:30:11.718Z,2.40
2018-09-23T05:32:40.570Z,2.00
2018-09-23T05:35:09.499Z,2.25
2018-09-23T05:37:38.358Z,2.10
2018-09-23T05:40:07.991Z,2.08
2018-09-23T05:42:36.890Z,2.00
2018-09-23T05:45:06.663Z,2.20
2018-09-23T05:47:35.519Z,2.22
2018-09-23T05:50:04.778Z,1.80
2018-09-23T05:52:33.687Z,1.65
2018-09-23T05:55:02.617Z,2.17
2018-09-23T05:57:31.520Z,2.17
2018-09-23T06:00:00.488Z,2.50
2018-09-23T06:02:29.500Z,2.47
2018-09-23T06:04:58.473Z,2.10
2018-09-23T06:07:27.404Z,2.05
2018-09-23T06:09:56.335Z,2.55
2018-09-23T06:12:25.250Z,3.02
2018-09-23T06:14:54.115Z,2.40
2018-09-23T06:17:23.035Z,2.10
2018-09-23T06:19:51.944Z,2.45
2018-09-23T06:22:20.840Z,2.30
2018-09-23T06:24:49.694Z,2.40
2018-09-23T06:27:18.587Z,2.30
2018-09-23T06:29:47.547Z,1.85
2018-09-23T06:32:16.436Z,2.00
2018-09-23T06:34:45.306Z,2.37
2018-09-23T06:37:14.278Z,1.90
2018-09-23T06:39:43.148Z,1.62
2018-09-23T06:42:12.030Z,1.80
2018-09-23T06:44:40.915Z,1.85
2018-09-23T06:47:09.878Z,2.00
2018-09-23T06:49:38.746Z,1.40
2018-09-23T06:52:11.682Z,1.77
2018-09-23T06:54:40.546Z,2.02
2018-09-23T06:57:09.537Z,1.50
2018-09-23T06:59:38.361Z,1.40
2018-09-23T07:02:07.242Z,1.27
2018-09-23T07:04:36.215Z,1.45
2018-09-23T07:07:05.038Z,1.82
2018-09-23T07:09:33.924Z,1.32
2018-09-23T07:12:02.818Z,1.72
2018-09-23T07:14:31.805Z,1.25
2018-09-23T07:17:00.950Z,1.65
2018-09-23T07:19:29.875Z,1.98
2018-09-23T07:21:58.790Z,1.60
2018-09-23T07:24:27.665Z,1.05
2018-09-23T07:26:56.575Z,2.25
2018-09-23T07:29:25.727Z,1.20
2018-09-23T07:31:54.627Z,1.20
2018-09-23T07:34:23.550Z,1.20
2018-09-23T07:36:52.698Z,1.30
2018-09-23T07:39:21.562Z,1.30
2018-09-23T07:41:50.400Z,1.47
2018-09-23T07:44:19.451Z,1.80
2018-09-23T07:46:48.466Z,1.50
2018-09-23T07:49:17.535Z,1.40
2018-09-23T07:51:46.486Z,1.40
2018-09-23T07:54:15.367Z,1.60
2018-09-23T07:56:44.266Z,1.55
2018-09-23T07:59:13.211Z,1.25
2018-09-23T08:01:42.203Z,1.50
2018-09-23T08:04:11.267Z,1.55
2018-09-23T08:06:40.169Z,2.08
2018-09-23T08:09:09.899Z,1.85
2018-09-23T08:11:39.440Z,1.70
2018-09-23T08:14:09.264Z,1.82
2018-09-23T08:16:37.778Z,2.50
2018-09-23T08:19:07.157Z,2.25
2018-09-23T08:21:36.079Z,2.02
2018-09-23T08:24:04.984Z,2.08
2018-09-23T08:26:33.900Z,2.40
2018-09-23T08:29:02.834Z,3.00
2018-09-23T08:31:31.748Z,2.33
2018-09-23T08:34:00.891Z,2.70
2018-09-23T08:36:29.788Z,2.80
2018-09-23T08:38:58.705Z,3.33
2018-09-23T08:41:27.627Z,2.80
2018-09-23T08:43:56.506Z,2.72
2018-09-23T08:46:25.726Z,3.20
2018-09-23T08:48:54.667Z,3.20
2018-09-23T08:51:23.563Z,3.47
2018-09-23T08:53:52.436Z,3.47
2018-09-23T08:56:21.331Z,2.92
2018-09-23T08:58:50.234Z,2.85
2018-09-23T09:01:19.136Z,2.95
2018-09-23T09:03:48.079Z,3.02
2018-09-23T09:06:16.967Z,3.52
2018-09-23T09:08:45.846Z,4.58
2018-09-23T09:11:14.738Z,4.37
2018-09-23T09:13:43.617Z,3.72
2018-09-23T09:16:12.510Z,3.80
2018-09-23T09:18:41.568Z,3.50
2018-09-23T09:21:10.415Z,4.17
2018-09-23T09:23:39.339Z,3.90
2018-09-23T09:26:08.231Z,3.60
2018-09-23T09:28:37.101Z,3.22
2018-09-23T09:31:06.015Z,3.45
2018-09-23T09:33:34.909Z,4.10
2018-09-23T09:36:03.847Z,3.80
2018-09-23T09:38:39.479Z,3.40
2018-09-23T09:41:08.374Z,3.80
2018-09-23T09:43:37.247Z,3.85
2018-09-23T09:46:06.382Z,3.87
2018-09-23T09:48:35.315Z,4.40
2018-09-23T09:51:04.214Z,3.40
2018-09-23T09:53:33.150Z,3.62
2018-09-23T09:56:02.097Z,3.37
2018-09-23T09:58:30.994Z,2.95
2018-09-23T10:00:59.946Z,3.42
2018-09-23T10:03:29.011Z,2.80
2018-09-23T10:05:58.135Z,3.10
2018-09-23T10:08:27.042Z,2.75
2018-09-23T10:10:55.956Z,3.13
2018-09-23T10:13:24.843Z,3.10
2018-09-23T10:15:53.731Z,2.75
2018-09-23T10:18:22.619Z,3.72
2018-09-23T10:20:51.494Z,3.22
2018-09-23T10:23:20.519Z,3.00
2018-09-23T10:25:49.307Z,2.50
2018-09-23T10:28:18.354Z,2.45
2018-09-23T10:30:47.231Z,2.50
2018-09-23T10:33:16.158Z,1.62
2018-09-23T10:35:45.052Z,2.05
2018-09-23T10:38:14.018Z,1.70
2018-09-23T10:40:42.899Z,1.65
2018-09-23T10:43:11.802Z,1.42
2018-09-23T10:45:40.683Z,1.50
2018-09-23T10:48:09.564Z,1.77
2018-09-23T10:50:38.482Z,1.30
2018-09-23T10:53:07.401Z,1.10
2018-09-23T10:55:36.367Z,1.30
2018-09-23T10:58:06.035Z,2.10
2018-09-23T11:00:34.958Z,1.52
2018-09-23T11:03:03.861Z,1.40
2018-09-23T11:05:32.746Z,2.22
2018-09-23T11:08:01.675Z,1.20
2018-09-23T11:10:30.753Z,2.00
2018-09-23T11:12:59.718Z,1.40
2018-09-23T11:15:28.651Z,1.42
2018-09-23T11:17:57.554Z,1.70
2018-09-23T11:20:26.454Z,1.25
2018-09-23T11:22:55.345Z,1.10
2018-09-23T11:25:24.226Z,1.40
2018-09-23T11:27:53.130Z,1.25
2018-09-23T11:30:22.161Z,1.27
2018-09-23T11:32:51.164Z,1.05
2018-09-23T11:35:20.084Z,1.10
2018-09-23T11:37:48.959Z,1.42
2018-09-23T11:40:17.959Z,1.17
2018-09-23T11:42:46.899Z,0.90
2018-09-23T11:45:15.751Z,0.88
2018-09-23T11:47:44.650Z,0.80
2018-09-23T11:50:13.555Z,0.90
2018-09-23T11:52:42.515Z,0.72
2018-09-23T11:55:11.411Z,0.82
2018-09-23T11:57:40.304Z,0.80
2018-09-23T12:00:09.415Z,0.80
2018-09-23T12:02:38.367Z,1.05
2018-09-23T12:05:07.275Z,0.65
2018-09-23T12:07:36.183Z,0.80
2018-09-23T12:10:05.135Z,0.82
2018-09-23T12:12:34.102Z,0.88
2018-09-23T12:15:03.051Z,0.93
2018-09-23T12:17:32.037Z,1.20
2018-09-23T12:20:00.962Z,0.70
2018-09-23T12:22:30.066Z,0.80
2018-09-23T12:24:59.022Z,1.75
2018-09-23T12:27:27.954Z,0.80
2018-09-23T12:29:56.847Z,0.80
2018-09-23T12:32:25.784Z,1.10
2018-09-23T12:34:54.656Z,0.78
2018-09-23T12:37:23.548Z,1.00
2018-09-23T12:39:52.553Z,0.80
2018-09-23T12:42:21.403Z,0.90
2018-09-23T12:44:50.346Z,1.05
2018-09-23T12:47:19.239Z,0.90
2018-09-23T12:49:48.167Z,0.70
2018-09-23T12:52:17.067Z,0.90
2018-09-23T12:54:45.958Z,0.90
2018-09-23T12:57:14.843Z,0.80
2018-09-23T12:59:43.732Z,0.80
2018-09-23T13:02:12.630Z,0.80
2018-09-23T13:04:43.544Z,1.02
2018-09-23T13:07:12.446Z,0.80
2018-09-23T13:09:41.354Z,1.15
2018-09-23T13:12:10.264Z,0.70
2018-09-23T13:14:39.155Z,0.80
2018-09-23T13:17:08.071Z,0.80
2018-09-23T13:19:37.046Z,0.80
2018-09-23T13:22:05.912Z,0.87
2018-09-23T13:24:34.794Z,0.80
2018-09-23T13:27:03.778Z,0.70
2018-09-23T13:29:32.671Z,0.90
2018-09-23T13:32:01.659Z,0.80
2018-09-23T13:34:30.635Z,1.00
2018-09-23T13:36:59.546Z,0.70
2018-09-23T13:39:28.582Z,0.70
2018-09-23T13:41:57.486Z,0.63
2018-09-23T13:44:26.370Z,0.53
2018-09-23T13:46:55.362Z,1.00
2018-09-23T13:49:24.493Z,2.50
2018-09-23T13:51:53.444Z,1.10
2018-09-23T13:54:22.339Z,0.60
2018-09-23T13:56:51.219Z,0.70
2018-09-23T13:59:20.099Z,0.50
2018-09-23T14:01:48.994Z,0.80
2018-09-23T14:04:17.883Z,0.60
2018-09-23T14:06:46.759Z,0.60
2018-09-23T14:09:15.706Z,0.50
2018-09-23T14:11:44.626Z,0.60
2018-09-23T14:14:13.498Z,0.70
2018-09-23T14:16:42.427Z,0.50
2018-09-23T14:19:11.513Z,0.60
2018-09-23T14:21:40.390Z,0.60
2018-09-23T14:24:09.285Z,0.53
2018-09-23T14:26:38.190Z,0.50
2018-09-23T14:29:07.190Z,0.67
2018-09-23T14:31:36.266Z,0.70
2018-09-23T14:34:05.279Z,0.90
2018-09-23T14:36:34.224Z,0.47
2018-09-23T14:39:03.543Z,0.60
2018-09-23T14:41:32.415Z,0.70
2018-09-23T14:44:01.358Z,0.53
2018-09-23T14:46:30.258Z,0.53
2018-09-23T14:48:59.327Z,0.57
2018-09-23T14:51:28.291Z,0.50
2018-09-23T14:53:57.234Z,0.60
2018-09-23T14:56:26.145Z,0.60
2018-09-23T14:58:55.034Z,0.50
2018-09-23T15:01:23.918Z,0.60
2018-09-23T15:03:52.799Z,0.50
2018-09-23T15:06:21.733Z,0.50
2018-09-23T15:08:50.566Z,1.30
2018-09-23T15:11:19.426Z,0.50
2018-09-23T15:13:48.339Z,3.63
2018-09-23T15:16:17.182Z,0.70
2018-09-23T15:18:46.065Z,0.60
2018-09-23T15:21:14.983Z,0.50
2018-09-23T15:23:43.849Z,0.50
2018-09-23T15:26:12.799Z,0.50
2018-09-23T15:28:41.690Z,0.50
2018-09-23T15:31:10.611Z,0.60
2018-09-23T15:33:39.487Z,0.50
2018-09-23T15:36:08.374Z,0.50
2018-09-23T15:38:37.265Z,0.40
2018-09-23T15:41:06.711Z,0.50
2018-09-23T15:43:35.635Z,0.57
2018-09-23T15:46:04.755Z,0.50
2018-09-23T15:48:33.789Z,0.60
2018-09-23T15:51:02.679Z,0.50
2018-09-23T15:53:31.726Z,0.50
2018-09-23T15:56:00.619Z,0.50
2018-09-23T15:58:29.976Z,0.50
2018-09-23T16:00:58.905Z,1.43
2018-09-23T16:03:27.798Z,0.70
2018-09-23T16:05:56.697Z,0.53
2018-09-23T16:08:25.601Z,1.00
2018-09-23T16:10:54.462Z,0.57
2018-09-23T16:13:23.374Z,0.60
2018-09-23T16:15:52.257Z,0.63
2018-09-23T16:18:21.254Z,1.83
2018-09-23T16:20:50.069Z,1.12
2018-09-23T16:23:19.067Z,1.80
2018-09-23T16:25:47.966Z,1.42
2018-09-23T16:28:16.875Z,1.20
2018-09-23T16:30:45.842Z,1.22
2018-09-23T16:33:14.789Z,0.70
2018-09-23T16:35:43.675Z,0.72
2018-09-23T16:38:12.584Z,0.80
2018-09-23T16:40:41.498Z,1.05
2018-09-23T16:43:10.390Z,0.88
2018-09-23T16:45:39.423Z,0.98
2018-09-23T16:48:08.339Z,1.17
2018-09-23T16:50:38.310Z,0.72
2018-09-23T16:53:07.224Z,1.00
2018-09-23T16:55:36.226Z,1.35
2018-09-23T16:58:05.276Z,1.00
2018-09-23T17:00:34.220Z,0.85
2018-09-23T17:03:03.106Z,1.32
2018-09-23T17:05:32.007Z,1.12
2018-09-23T17:08:00.927Z,0.80
2018-09-23T17:10:29.839Z,0.78
2018-09-23T17:12:58.846Z,1.02
2018-09-23T17:15:27.727Z,0.98
2018-09-23T17:17:56.627Z,0.75
2018-09-23T17:20:25.514Z,1.32
2018-09-23T17:22:54.405Z,1.35
2018-09-23T17:25:23.283Z,1.87
2018-09-23T17:27:53.965Z,1.05
2018-09-23T17:30:23.086Z,1.37
2018-09-23T17:32:52.056Z,3.35
2018-09-23T17:35:20.975Z,0.93
2018-09-23T17:37:49.887Z,0.93
2018-09-23T17:40:18.804Z,1.17
2018-09-23T17:42:47.702Z,0.85
2018-09-23T17:45:16.590Z,1.10
2018-09-23T17:47:45.634Z,0.80
2018-09-23T17:50:14.536Z,0.80
2018-09-23T17:52:43.431Z,0.70
2018-09-23T17:55:12.314Z,0.80
2018-09-23T17:57:41.415Z,0.62
2018-09-23T18:00:10.301Z,0.60
2018-09-23T18:02:39.187Z,0.60
2018-09-23T18:05:08.126Z,0.90
2018-09-23T18:07:36.997Z,1.07
2018-09-23T18:10:05.915Z,0.80
2018-09-23T18:12:34.806Z,1.10
2018-09-23T18:15:03.810Z,1.10
2018-09-23T18:17:32.732Z,1.02
2018-09-23T18:20:01.626Z,0.70
2018-09-23T18:22:30.523Z,0.70
2018-09-23T18:24:59.446Z,0.80
2018-09-23T18:27:28.338Z,1.00
2018-09-23T18:29:57.294Z,0.88
2018-09-23T18:32:26.148Z,0.80
2018-09-23T18:34:55.051Z,0.78
2018-09-23T18:37:24.018Z,0.60
2018-09-23T18:39:52.831Z,0.70
2018-09-23T18:42:21.709Z,0.70
2018-09-23T18:44:50.595Z,0.60
2018-09-23T18:47:19.461Z,0.50
2018-09-23T18:49:48.531Z,0.47
2018-09-23T18:52:17.355Z,0.60
2018-09-23T18:54:51.742Z,0.50
2018-09-23T18:57:20.639Z,0.45
2018-09-23T18:59:49.679Z,0.50
2018-09-23T19:02:18.822Z,0.40
2018-09-23T19:04:47.735Z,0.50
2018-09-23T19:07:17.173Z,0.40
2018-09-23T19:09:46.047Z,0.50
2018-09-23T19:12:14.927Z,0.50
2018-09-23T19:14:43.974Z,0.50
2018-09-23T19:17:12.839Z,0.40
2018-09-23T19:20:18.706Z,0.50
2018-09-23T19:22:52.929Z,0.40
2018-09-23T19:25:21.827Z,0.50
2018-09-23T19:27:50.694Z,0.40
2018-09-23T19:30:19.596Z,0.40
2018-09-23T19:32:48.488Z,0.40
2018-09-23T19:35:17.378Z,0.50
2018-09-23T19:37:46.262Z,0.40
2018-09-23T19:40:15.240Z,0.40
2018-09-23T19:42:44.438Z,0.40
2018-09-23T19:45:13.419Z,0.40
2018-09-23T19:47:42.446Z,0.40
2018-09-23T19:50:11.435Z,0.42
2018-09-23T19:52:40.406Z,0.55
2018-09-23T19:55:09.327Z,0.40
2018-09-23T19:57:39.258Z,0.40
2018-09-23T20:00:08.222Z,0.65
2018-09-23T20:02:37.105Z,0.40
2018-09-23T20:05:06.059Z,0.40
2018-09-23T20:07:35.719Z,0.40
2018-09-23T20:10:04.906Z,0.40
2018-09-23T20:12:33.915Z,0.30
2018-09-23T20:15:03.900Z,0.42
2018-09-23T20:17:33.018Z,0.40
2018-09-23T20:20:01.867Z,0.45
2018-09-23T20:22:30.756Z,0.40
2018-09-23T20:24:59.658Z,0.50
2018-09-23T20:27:28.564Z,0.50
2018-09-23T20:29:58.144Z,0.50
2018-09-23T20:32:27.055Z,0.60
2018-09-23T20:34:56.015Z,0.40
2018-09-23T20:37:24.879Z,0.50
2018-09-23T20:39:53.837Z,0.50
2018-09-23T20:42:22.731Z,0.42
2018-09-23T20:44:51.637Z,0.60
2018-09-23T20:47:20.523Z,0.50
2018-09-23T20:49:49.418Z,0.50
2018-09-23T20:52:18.301Z,0.50
2018-09-23T20:54:47.194Z,0.50
2018-09-23T20:57:16.107Z,0.40
2018-09-23T20:59:45.043Z,0.50
2018-09-23T21:02:17.836Z,0.60
2018-09-23T21:04:46.674Z,0.62
2018-09-23T21:07:15.535Z,0.60
2018-09-23T21:09:44.423Z,0.60
2018-09-23T21:12:13.310Z,0.60
2018-09-23T21:14:44.283Z,0.68
2018-09-23T21:17:13.147Z,0.60
2018-09-23T21:19:42.038Z,0.50
2018-09-23T21:22:10.914Z,0.60
2018-09-23T21:24:39.798Z,0.60
2018-09-23T21:27:08.670Z,0.60
2018-09-23T21:29:37.646Z,0.80
2018-09-23T21:32:06.742Z,0.50
2018-09-23T21:34:35.755Z,0.65
2018-09-23T21:37:04.672Z,0.70
2018-09-23T21:39:33.566Z,0.60
2018-09-23T21:42:02.452Z,0.90
2018-09-23T21:44:31.367Z,0.75
2018-09-23T21:47:00.263Z,0.50
2018-09-23T21:49:29.282Z,0.50
2018-09-23T21:51:58.399Z,0.60
2018-09-23T21:54:27.627Z,0.50
2018-09-23T21:56:56.486Z,0.53
2018-09-23T21:59:30.803Z,0.75
2018-09-23T22:01:59.705Z,0.80
2018-09-23T22:04:28.600Z,0.60
2018-09-23T22:06:57.495Z,0.60
2018-09-23T22:09:26.439Z,0.60
2018-09-23T22:11:55.309Z,0.60
2018-09-23T22:14:24.190Z,0.65
2018-09-23T22:16:53.087Z,0.50
2018-09-23T22:19:21.974Z,0.50
2018-09-23T22:21:50.878Z,0.60
2018-09-23T22:24:19.814Z,0.50
2018-09-23T22:26:48.693Z,0.50
2018-09-23T22:29:17.578Z,0.60
2018-09-23T22:31:46.451Z,0.50
2018-09-23T22:34:15.335Z,0.50
2018-09-23T22:36:44.214Z,0.50
2018-09-23T22:39:13.103Z,0.75
2018-09-23T22:41:42.075Z,0.50
2018-09-23T22:44:11.058Z,0.60
2018-09-23T22:46:40.146Z,0.70
2018-09-23T22:49:09.043Z,0.70
2018-09-23T22:51:37.907Z,0.50
2018-09-23T22:54:06.883Z,0.50
2018-09-23T22:56:35.764Z,0.62
2018-09-23T22:59:04.735Z,0.68
2018-09-23T23:01:33.715Z,0.55
2018-09-23T23:04:02.594Z,0.60
2018-09-23T23:06:31.498Z,0.60
2018-09-23T23:09:00.425Z,0.50
2018-09-23T23:11:29.359Z,0.50
2018-09-23T23:13:58.257Z,0.40
2018-09-23T23:16:27.183Z,0.60
2018-09-23T23:18:56.102Z,0.70
2018-09-23T23:21:24.966Z,0.60
2018-09-23T23:23:53.862Z,0.60
2018-09-23T23:26:22.729Z,0.65
2018-09-23T23:28:51.623Z,0.50
2018-09-23T23:31:20.482Z,0.80
2018-09-23T23:33:49.355Z,0.50
2018-09-23T23:36:18.250Z,0.68
2018-09-23T23:38:47.134Z,0.80
2018-09-23T23:41:16.022Z,0.57
2018-09-23T23:43:44.878Z,0.60
2018-09-23T23:46:13.767Z,0.50
2018-09-23T23:48:42.618Z,0.70
2018-09-23T23:51:11.494Z,0.60
2018-09-23T23:53:40.499Z,0.82
2018-09-23T23:56:09.527Z,0.70
2018-09-23T23:58:38.530Z,0.70
